createdAt,value
2023-05-25T00:01:01.314Z,17.43
2023-05-25T00:03:31.728Z,17.13
2023-05-25T00:06:02.482Z,16.89
2023-05-25T00:08:30.320Z,16.64
2023-05-25T00:10:57.466Z,17.00
2023-05-25T00:13:25.620Z,17.68
2023-05-25T00:15:53.220Z,17.82
2023-05-25T00:18:20.380Z,17.65
2023-05-25T00:20:47.958Z,17.37
2023-05-25T00:23:15.279Z,17.10
2023-05-25T00:25:42.708Z,16.85
2023-05-25T00:28:11.553Z,16.56
2023-05-25T00:30:39.162Z,16.26
2023-05-25T00:33:07.054Z,16.75
2023-05-25T00:35:34.506Z,17.34
2023-05-25T00:38:01.587Z,17.43
2023-05-25T00:40:28.705Z,17.24
2023-05-25T00:42:56.213Z,16.97
2023-05-25T00:45:23.634Z,16.79
2023-05-25T00:47:51.746Z,16.57
2023-05-25T00:50:19.575Z,16.32
2023-05-25T00:52:46.664Z,16.70
2023-05-25T00:55:13.766Z,17.20
2023-05-25T00:57:41.651Z,17.19
2023-05-25T01:00:13.385Z,16.90
2023-05-25T01:02:42.666Z,16.58
2023-05-25T01:05:10.230Z,16.30
2023-05-25T01:07:37.730Z,15.98
2023-05-25T01:10:09.236Z,15.67
2023-05-25T01:12:38.029Z,16.04
2023-05-25T01:15:06.632Z,16.54
2023-05-25T01:17:38.263Z,16.58
2023-05-25T01:20:11.677Z,16.36
2023-05-25T01:22:54.585Z,16.05
2023-05-25T01:25:29.032Z,15.78
2023-05-25T01:28:28.077Z,15.56
2023-05-25T01:30:55.777Z,15.33
2023-05-25T01:33:22.849Z,16.01
2023-05-25T01:35:51.274Z,16.62
2023-05-25T01:38:18.628Z,16.69
2023-05-25T01:40:45.701Z,16.50
2023-05-25T01:43:12.760Z,16.22
2023-05-25T01:45:39.932Z,15.94
2023-05-25T01:48:13.536Z,15.69
2023-05-25T01:51:01.446Z,15.42
2023-05-25T01:53:30.658Z,15.89
2023-05-25T01:56:05.348Z,16.35
2023-05-25T01:58:44.561Z,16.31
2023-05-25T02:01:14.179Z,16.04
2023-05-25T02:03:41.816Z,15.76
2023-05-25T02:06:09.261Z,15.47
2023-05-25T02:08:36.575Z,15.23
2023-05-25T02:11:04.194Z,15.01
2023-05-25T02:13:31.987Z,15.52
2023-05-25T02:15:59.675Z,16.10
2023-05-25T02:18:28.110Z,16.16
2023-05-25T02:20:55.351Z,15.97
2023-05-25T02:23:22.551Z,15.72
2023-05-25T02:25:51.848Z,15.46
2023-05-25T02:28:19.267Z,15.24
2023-05-25T02:30:46.433Z,15.01
2023-05-25T02:33:14.008Z,15.44
2023-05-25T02:35:42.029Z,15.99
2023-05-25T02:38:10.595Z,16.02
2023-05-25T02:40:39.019Z,15.77
2023-05-25T02:43:06.288Z,15.48
2023-05-25T02:45:33.890Z,15.23
2023-05-25T02:48:01.356Z,15.00
2023-05-25T02:50:29.232Z,14.77
2023-05-25T02:52:56.917Z,15.24
2023-05-25T02:55:26.243Z,15.82
2023-05-25T02:57:53.658Z,15.92
2023-05-25T03:00:42.958Z,15.72
2023-05-25T03:03:10.307Z,15.48
2023-05-25T03:05:38.690Z,15.24
2023-05-25T03:08:06.253Z,15.02
2023-05-25T03:10:35.093Z,14.80
2023-05-25T03:13:02.584Z,15.31
2023-05-25T03:15:30.775Z,15.93
2023-05-25T03:18:01.341Z,16.02
2023-05-25T03:20:29.939Z,15.84
2023-05-25T03:22:57.195Z,15.56
2023-05-25T03:25:24.871Z,15.29
2023-05-25T03:27:54.089Z,15.11
2023-05-25T03:30:22.449Z,14.97
2023-05-25T03:32:49.570Z,15.58
2023-05-25T03:35:16.866Z,16.27
2023-05-25T03:37:44.092Z,16.44
2023-05-25T03:40:12.085Z,16.39
2023-05-25T03:42:39.592Z,16.27
2023-05-25T03:45:09.289Z,16.14
2023-05-25T03:47:37.257Z,16.04
2023-05-25T03:50:06.107Z,16.02
2023-05-25T03:52:35.192Z,16.71
2023-05-25T03:55:04.715Z,17.47
2023-05-25T03:57:31.839Z,17.60
2023-05-25T03:59:59.441Z,17.47
2023-05-25T04:02:26.755Z,17.34
2023-05-25T04:04:57.141Z,17.24
2023-05-25T04:07:27.732Z,17.14
2023-05-25T04:09:54.874Z,17.80
2023-05-25T04:12:22.190Z,18.49
2023-05-25T04:14:49.382Z,18.65
2023-05-25T04:17:19.092Z,18.67
2023-05-25T04:19:46.574Z,18.55
2023-05-25T04:22:13.849Z,18.41
2023-05-25T04:24:42.106Z,18.27
2023-05-25T04:27:09.410Z,18.82
2023-05-25T04:29:38.343Z,19.51
2023-05-25T04:32:19.994Z,19.63
2023-05-25T04:34:52.426Z,19.51
2023-05-25T04:37:27.428Z,19.31
2023-05-25T04:39:57.789Z,19.14
2023-05-25T04:42:25.789Z,19.02
2023-05-25T04:44:57.449Z,18.90
2023-05-25T04:47:26.134Z,19.45
2023-05-25T04:49:54.550Z,20.08
2023-05-25T04:52:23.383Z,20.25
2023-05-25T04:54:51.777Z,20.16
2023-05-25T04:57:19.025Z,19.99
2023-05-25T04:59:46.997Z,19.83
2023-05-25T05:02:14.081Z,19.68
2023-05-25T05:04:41.614Z,19.54
2023-05-25T05:07:09.277Z,20.12
2023-05-25T05:09:36.951Z,20.80
2023-05-25T05:12:04.718Z,20.96
2023-05-25T05:14:36.697Z,20.88
2023-05-25T05:17:04.712Z,20.71
2023-05-25T05:19:33.349Z,20.55
2023-05-25T05:22:00.488Z,20.41
2023-05-25T05:24:27.724Z,20.26
2023-05-25T05:26:59.332Z,20.13
2023-05-25T05:29:37.714Z,20.76
2023-05-25T05:32:05.269Z,21.43
2023-05-25T05:34:33.502Z,21.59
2023-05-25T05:37:04.766Z,21.52
2023-05-25T05:39:32.121Z,21.40
2023-05-25T05:41:59.704Z,21.29
2023-05-25T05:44:29.335Z,21.22
2023-05-25T05:47:01.374Z,21.12
2023-05-25T05:49:29.864Z,21.06
2023-05-25T05:51:57.648Z,21.01
2023-05-25T05:54:24.861Z,21.67
2023-05-25T05:56:52.791Z,22.38
2023-05-25T05:59:21.464Z,22.60
2023-05-25T06:01:48.730Z,22.54
2023-05-25T06:04:16.207Z,22.35
2023-05-25T06:06:45.429Z,22.24
2023-05-25T06:09:12.918Z,22.04
2023-05-25T06:11:40.734Z,21.91
2023-05-25T06:14:08.280Z,21.83
2023-05-25T06:16:37.030Z,21.76
2023-05-25T06:19:04.929Z,21.68
2023-05-25T06:21:32.772Z,21.61
2023-05-25T06:23:59.749Z,21.52
2023-05-25T06:26:27.399Z,22.14
2023-05-25T06:28:54.785Z,22.92
2023-05-25T06:31:22.358Z,23.16
2023-05-25T06:33:49.515Z,23.11
2023-05-25T06:36:16.749Z,23.07
2023-05-25T06:38:44.105Z,22.97
2023-05-25T06:41:15.224Z,22.86
2023-05-25T06:43:43.097Z,22.71
2023-05-25T06:46:18.316Z,22.72
2023-05-25T06:48:46.242Z,22.72
2023-05-25T06:51:13.640Z,22.74
2023-05-25T06:53:41.394Z,22.75
2023-05-25T06:56:09.319Z,22.80
2023-05-25T06:58:36.803Z,22.88
2023-05-25T07:01:04.004Z,22.87
2023-05-25T07:03:32.832Z,22.90
2023-05-25T07:05:59.960Z,23.09
2023-05-25T07:08:27.020Z,23.29
2023-05-25T07:10:54.340Z,23.51
2023-05-25T07:13:22.004Z,23.98
2023-05-25T07:15:49.502Z,24.61
2023-05-25T07:18:16.636Z,25.20
2023-05-25T07:20:44.127Z,25.87
2023-05-25T07:23:11.852Z,26.52
2023-05-25T07:25:39.002Z,27.06
2023-05-25T07:28:06.923Z,27.36
2023-05-25T07:30:34.654Z,27.61
2023-05-25T07:33:02.276Z,27.87
2023-05-25T07:35:29.574Z,28.21
2023-05-25T07:38:00.702Z,28.47
2023-05-25T07:40:29.264Z,28.60
2023-05-25T07:42:56.343Z,28.75
2023-05-25T07:45:23.492Z,28.70
2023-05-25T07:47:50.759Z,28.79
2023-05-25T07:50:17.991Z,29.03
2023-05-25T07:52:45.167Z,29.30
2023-05-25T07:55:12.213Z,29.53
2023-05-25T07:57:40.042Z,29.69
2023-05-25T08:00:11.269Z,29.81
2023-05-25T08:02:42.650Z,29.95
2023-05-25T08:05:10.235Z,30.07
2023-05-25T08:07:38.248Z,30.39
2023-05-25T08:10:06.717Z,30.66
2023-05-25T08:12:47.965Z,30.85
2023-05-25T08:15:16.879Z,30.99
2023-05-25T08:17:44.515Z,30.98
2023-05-25T08:20:12.280Z,30.89
2023-05-25T08:22:40.240Z,30.68
2023-05-25T08:25:08.213Z,30.53
2023-05-25T08:27:36.747Z,30.47
2023-05-25T08:30:06.089Z,30.35
2023-05-25T08:32:33.659Z,30.35
2023-05-25T08:35:02.049Z,30.51
2023-05-25T08:37:30.639Z,30.71
2023-05-25T08:39:58.012Z,30.83
2023-05-25T08:42:25.138Z,30.92
2023-05-25T08:44:52.282Z,30.96
2023-05-25T08:47:20.567Z,31.05
2023-05-25T08:49:48.829Z,31.15
2023-05-25T08:52:21.878Z,31.33
2023-05-25T08:54:51.201Z,31.48
2023-05-25T08:57:26.176Z,31.61
2023-05-25T09:00:13.109Z,31.79
2023-05-25T09:03:29.203Z,31.99
2023-05-25T09:05:58.164Z,32.05
2023-05-25T09:08:25.684Z,32.13
2023-05-25T09:10:52.871Z,32.31
2023-05-25T09:13:22.895Z,32.59
2023-05-25T09:15:50.804Z,32.70
2023-05-25T09:18:17.949Z,32.70
2023-05-25T09:20:47.119Z,32.64
2023-05-25T09:23:15.306Z,32.62
2023-05-25T09:25:42.634Z,32.63
2023-05-25T09:28:25.469Z,32.73
2023-05-25T09:30:54.805Z,32.87
2023-05-25T09:33:21.915Z,32.99
2023-05-25T09:35:49.257Z,33.10
2023-05-25T09:38:17.039Z,33.30
2023-05-25T09:40:44.808Z,33.49
2023-05-25T09:43:15.758Z,33.69
2023-05-25T09:45:49.482Z,33.94
2023-05-25T09:48:17.961Z,34.04
2023-05-25T09:50:48.045Z,33.99
2023-05-25T09:53:18.482Z,33.97
2023-05-25T09:58:18.296Z,33.67
2023-05-25T10:00:46.521Z,33.74
2023-05-25T10:03:15.572Z,33.82
2023-05-25T10:05:42.748Z,33.97
2023-05-25T10:08:10.048Z,34.08
2023-05-25T10:10:37.555Z,34.23
2023-05-25T10:13:05.100Z,34.14
2023-05-25T10:15:32.157Z,34.13
2023-05-25T10:17:59.455Z,34.11
2023-05-25T10:20:56.260Z,34.14
2023-05-25T10:23:15.159Z,34.25
2023-05-25T10:25:46.089Z,34.12
2023-05-25T10:28:28.450Z,34.15
2023-05-25T10:30:56.999Z,34.32
2023-05-25T10:33:24.163Z,34.65
2023-05-25T10:36:02.954Z,34.90
2023-05-25T10:38:37.841Z,34.71
2023-05-25T10:41:07.106Z,34.55
2023-05-25T10:43:35.211Z,34.12
2023-05-25T10:46:02.381Z,33.59
2023-05-25T10:48:36.762Z,33.08
2023-05-25T10:51:04.328Z,32.62
2023-05-25T10:53:31.961Z,32.37
2023-05-25T10:56:10.067Z,32.48
2023-05-25T10:58:41.358Z,32.99
2023-05-25T11:01:09.808Z,33.57
2023-05-25T11:03:56.870Z,33.88
2023-05-25T11:06:47.162Z,33.66
2023-05-25T11:09:33.304Z,33.12
2023-05-25T11:12:02.468Z,32.54
2023-05-25T11:14:31.510Z,32.05
2023-05-25T11:17:11.813Z,31.70
2023-05-25T11:19:54.079Z,31.38
2023-05-25T11:22:30.899Z,31.41
2023-05-25T11:25:00.215Z,32.16
2023-05-25T11:27:31.032Z,33.09
2023-05-25T11:29:58.902Z,33.56
2023-05-25T11:32:27.131Z,33.67
2023-05-25T11:34:55.315Z,33.71
2023-05-25T11:37:24.951Z,33.51
2023-05-25T11:39:52.636Z,33.73
2023-05-25T11:42:24.308Z,33.99
2023-05-25T11:45:38.495Z,33.96
2023-05-25T11:48:06.179Z,34.23
2023-05-25T11:50:34.147Z,34.65
2023-05-25T11:53:06.094Z,35.06
2023-05-25T11:55:34.544Z,35.36
2023-05-25T11:58:02.303Z,35.56
2023-05-25T12:00:29.664Z,35.67
2023-05-25T12:02:57.795Z,35.84
2023-05-25T12:05:25.185Z,35.91
2023-05-25T12:07:52.368Z,35.91
2023-05-25T12:10:19.548Z,35.89
2023-05-25T12:12:51.053Z,35.88
2023-05-25T12:15:21.953Z,35.88
2023-05-25T12:17:49.278Z,35.94
2023-05-25T12:20:17.003Z,35.92
2023-05-25T12:22:45.015Z,35.93
2023-05-25T12:25:12.682Z,35.76
2023-05-25T12:27:43.914Z,35.74
2023-05-25T12:30:11.575Z,35.66
2023-05-25T12:32:53.148Z,35.46
2023-05-25T12:35:20.491Z,34.96
2023-05-25T12:41:06.769Z,33.00
2023-05-25T12:43:43.148Z,33.33
2023-05-25T12:46:10.726Z,33.15
2023-05-25T12:48:38.896Z,32.85
2023-05-25T12:51:10.141Z,32.72
2023-05-25T12:53:50.603Z,32.67
2023-05-25T12:56:17.870Z,32.37
2023-05-25T12:58:45.064Z,32.13
2023-05-25T13:01:12.501Z,32.05
2023-05-25T13:03:39.831Z,32.00
2023-05-25T13:06:07.150Z,32.00
2023-05-25T13:08:34.769Z,32.00
2023-05-25T13:11:03.873Z,31.88
2023-05-25T13:13:31.149Z,31.83
2023-05-25T13:15:58.561Z,31.71
2023-05-25T13:18:26.735Z,31.62
2023-05-25T13:20:56.496Z,31.45
2023-05-25T13:23:25.230Z,31.15
2023-05-25T13:25:52.462Z,31.00
2023-05-25T13:28:19.687Z,30.96
2023-05-25T13:30:47.113Z,30.85
2023-05-25T13:33:14.353Z,30.59
2023-05-25T13:35:46.441Z,30.38
2023-05-25T13:38:15.855Z,30.08
2023-05-25T13:40:45.053Z,29.73
2023-05-25T13:43:12.139Z,29.40
2023-05-25T13:45:41.851Z,29.18
2023-05-25T13:48:09.634Z,29.02
2023-05-25T13:50:40.484Z,28.81
2023-05-25T13:53:07.473Z,28.53
2023-05-25T13:55:36.113Z,28.29
2023-05-25T13:58:05.048Z,28.03
2023-05-25T14:00:33.046Z,27.93
2023-05-25T14:03:00.522Z,27.92
2023-05-25T14:05:28.652Z,27.92
2023-05-25T14:07:56.773Z,28.03
2023-05-25T14:10:24.180Z,28.12
2023-05-25T14:12:51.757Z,28.28
2023-05-25T14:15:19.041Z,28.46
2023-05-25T14:17:46.208Z,28.66
2023-05-25T14:20:16.345Z,28.79
2023-05-25T14:22:43.564Z,28.91
2023-05-25T14:25:10.672Z,28.93
2023-05-25T14:27:38.791Z,28.82
2023-05-25T14:30:07.521Z,28.70
2023-05-25T14:32:50.088Z,28.55
2023-05-25T14:35:17.504Z,28.41
2023-05-25T14:37:44.617Z,28.43
2023-05-25T14:40:12.488Z,28.44
2023-05-25T14:42:40.497Z,28.40
2023-05-25T14:45:10.074Z,28.32
2023-05-25T14:47:38.792Z,28.21
2023-05-25T14:50:06.810Z,28.18
2023-05-25T14:52:34.241Z,28.18
2023-05-25T14:55:01.321Z,28.24
2023-05-25T14:57:28.532Z,28.38
2023-05-25T14:59:56.171Z,28.47
2023-05-25T15:02:23.323Z,28.56
2023-05-25T15:04:50.954Z,28.58
2023-05-25T15:07:18.161Z,28.57
2023-05-25T15:09:45.579Z,28.57
2023-05-25T15:12:13.143Z,28.54
2023-05-25T15:14:42.400Z,28.42
2023-05-25T15:17:09.982Z,28.34
2023-05-25T15:19:37.479Z,28.27
2023-05-25T15:22:04.884Z,28.21
2023-05-25T15:24:32.682Z,28.16
2023-05-25T15:26:59.864Z,28.09
2023-05-25T15:29:27.155Z,28.01
2023-05-25T15:31:54.377Z,27.94
2023-05-25T15:34:22.497Z,27.87
2023-05-25T15:36:49.703Z,27.83
2023-05-25T15:39:16.769Z,27.75
2023-05-25T15:41:43.874Z,27.65
2023-05-25T15:44:12.848Z,27.58
2023-05-25T15:46:41.206Z,27.50
2023-05-25T15:49:11.373Z,27.38
2023-05-25T15:51:40.117Z,27.26
2023-05-25T15:54:08.018Z,27.13
2023-05-25T15:56:36.352Z,26.95
2023-05-25T15:59:04.046Z,26.79
2023-05-25T16:01:36.924Z,26.61
2023-05-25T16:04:04.697Z,26.43
2023-05-25T16:06:32.263Z,26.25
2023-05-25T16:08:59.350Z,26.15
2023-05-25T16:11:31.792Z,26.05
2023-05-25T16:13:59.328Z,25.95
2023-05-25T16:16:26.649Z,25.84
2023-05-25T16:18:54.224Z,25.67
2023-05-25T16:21:21.738Z,25.57
2023-05-25T16:23:48.744Z,25.49
2023-05-25T16:26:17.646Z,25.40
2023-05-25T16:28:44.889Z,25.33
2023-05-25T16:31:13.558Z,25.25
2023-05-25T16:33:42.013Z,25.16
2023-05-25T16:36:09.070Z,25.07
2023-05-25T16:38:36.190Z,25.01
2023-05-25T16:41:03.260Z,24.98
2023-05-25T16:43:30.925Z,25.00
2023-05-25T16:45:58.273Z,25.05
2023-05-25T16:48:26.287Z,25.01
2023-05-25T16:50:53.389Z,24.89
2023-05-25T16:53:20.419Z,24.79
2023-05-25T16:55:47.609Z,24.70
2023-05-25T16:58:14.858Z,24.60
2023-05-25T17:00:42.766Z,24.51
2023-05-25T17:03:10.050Z,24.48
2023-05-25T17:05:37.355Z,24.37
2023-05-25T17:08:04.472Z,24.20
2023-05-25T17:10:32.034Z,24.02
2023-05-25T17:12:59.229Z,23.96
2023-05-25T17:15:26.910Z,23.94
2023-05-25T17:17:54.335Z,23.87
2023-05-25T17:20:21.529Z,23.76
2023-05-25T17:22:49.886Z,23.65
2023-05-25T17:25:17.039Z,23.51
2023-05-25T17:27:44.155Z,23.38
2023-05-25T17:30:11.808Z,23.29
2023-05-25T17:32:41.156Z,23.23
2023-05-25T17:35:09.036Z,23.19
2023-05-25T17:37:36.418Z,23.20
2023-05-25T17:40:05.050Z,23.25
2023-05-25T17:42:32.393Z,23.26
2023-05-25T17:44:59.633Z,23.21
2023-05-25T17:47:27.480Z,23.09
2023-05-25T17:49:54.588Z,22.96
2023-05-25T17:52:23.281Z,22.85
2023-05-25T17:54:53.550Z,22.73
2023-05-25T17:57:20.734Z,22.60
2023-05-25T17:59:47.917Z,22.52
2023-05-25T18:02:15.187Z,22.44
2023-05-25T18:04:42.353Z,22.37
2023-05-25T18:07:09.408Z,22.30
2023-05-25T18:09:36.503Z,22.23
2023-05-25T18:12:03.829Z,22.17
2023-05-25T18:14:35.313Z,22.11
2023-05-25T18:17:02.848Z,22.05
2023-05-25T18:19:30.153Z,22.02
2023-05-25T18:21:57.517Z,21.99
2023-05-25T18:24:24.720Z,21.94
2023-05-25T18:26:51.805Z,21.89
2023-05-25T18:29:19.039Z,21.83
2023-05-25T18:31:48.859Z,21.76
2023-05-25T18:34:16.372Z,21.74
2023-05-25T18:36:46.557Z,21.68
2023-05-25T18:39:13.605Z,21.66
2023-05-25T18:41:42.355Z,21.63
2023-05-25T18:44:10.067Z,21.64
2023-05-25T18:46:40.799Z,21.63
2023-05-25T18:49:08.143Z,21.62
2023-05-25T18:51:35.285Z,21.61
2023-05-25T18:54:02.806Z,21.58
2023-05-25T18:56:30.031Z,21.54
2023-05-25T18:58:57.236Z,21.46
2023-05-25T19:01:25.641Z,21.39
2023-05-25T19:03:56.002Z,21.30
2023-05-25T19:06:25.593Z,21.18
2023-05-25T19:08:52.696Z,21.07
2023-05-25T19:11:20.377Z,20.99
2023-05-25T19:13:48.114Z,20.93
2023-05-25T19:16:15.358Z,20.83
2023-05-25T19:18:42.548Z,20.75
2023-05-25T19:21:09.871Z,20.71
2023-05-25T19:23:37.364Z,20.66
2023-05-25T19:26:04.462Z,20.60
2023-05-25T19:28:32.236Z,20.54
2023-05-25T19:30:59.552Z,20.52
2023-05-25T19:33:26.834Z,20.49
2023-05-25T19:35:53.996Z,20.41
2023-05-25T19:40:48.429Z,20.18
2023-05-25T19:43:15.970Z,20.10
2023-05-25T19:45:44.025Z,20.05
2023-05-25T19:48:11.591Z,19.99
2023-05-25T19:50:38.938Z,19.96
2023-05-25T19:53:06.920Z,19.91
2023-05-25T19:55:36.937Z,19.90
2023-05-25T19:58:04.278Z,19.88
2023-05-25T20:00:32.379Z,19.91
2023-05-25T20:02:59.606Z,19.91
2023-05-25T20:05:27.058Z,19.87
2023-05-25T20:07:56.667Z,19.82
2023-05-25T20:10:23.939Z,19.73
2023-05-25T20:12:51.279Z,19.63
2023-05-25T20:15:18.583Z,19.56
2023-05-25T20:17:45.736Z,19.52
2023-05-25T20:20:13.064Z,19.49
2023-05-25T20:22:41.152Z,19.45
2023-05-25T20:25:08.430Z,19.41
2023-05-25T20:27:35.698Z,19.40
2023-05-25T20:30:03.286Z,19.38
2023-05-25T20:32:31.530Z,19.34
2023-05-25T20:34:58.661Z,19.35
2023-05-25T20:37:25.824Z,19.32
2023-05-25T20:39:52.957Z,19.27
2023-05-25T20:42:19.953Z,19.26
2023-05-25T20:44:47.246Z,19.28
2023-05-25T20:47:14.286Z,19.32
2023-05-25T20:49:41.681Z,19.32
2023-05-25T20:52:08.689Z,19.31
2023-05-25T20:54:36.957Z,19.31
2023-05-25T20:57:04.505Z,19.33
2023-05-25T20:59:32.128Z,19.34
2023-05-25T21:01:59.492Z,19.31
2023-05-25T21:04:27.062Z,19.24
2023-05-25T21:06:54.396Z,19.20
2023-05-25T21:09:22.493Z,19.17
2023-05-25T21:11:49.787Z,19.07
2023-05-25T21:14:16.907Z,19.55
2023-05-25T21:16:44.366Z,20.23
2023-05-25T21:19:11.986Z,20.39
2023-05-25T21:21:39.349Z,20.25
2023-05-25T21:24:06.598Z,20.02
2023-05-25T21:26:33.794Z,19.80
2023-05-25T21:29:00.973Z,19.59
2023-05-25T21:31:28.190Z,19.42
2023-05-25T21:33:55.415Z,19.26
2023-05-25T21:36:22.569Z,19.13
2023-05-25T21:38:49.617Z,19.01
2023-05-25T21:41:17.146Z,18.91
2023-05-25T21:43:44.247Z,18.81
2023-05-25T21:46:11.272Z,19.40
2023-05-25T21:48:38.925Z,20.18
2023-05-25T21:51:06.156Z,20.44
2023-05-25T21:53:33.660Z,20.39
2023-05-25T21:56:00.971Z,20.23
2023-05-25T21:58:28.120Z,20.01
2023-05-25T22:00:55.618Z,19.83
2023-05-25T22:03:22.819Z,19.68
2023-05-25T22:05:52.758Z,19.55
2023-05-25T22:08:20.000Z,19.43
2023-05-25T22:10:47.060Z,19.35
2023-05-25T22:13:14.327Z,19.29
2023-05-25T22:15:41.488Z,19.26
2023-05-25T22:18:08.594Z,19.27
2023-05-25T22:20:39.024Z,19.25
2023-05-25T22:23:06.284Z,19.22
2023-05-25T22:25:33.503Z,19.16
2023-05-25T22:28:00.883Z,19.07
2023-05-25T22:30:28.648Z,19.57
2023-05-25T22:32:55.837Z,20.22
2023-05-25T22:35:23.469Z,20.38
2023-05-25T22:37:50.611Z,20.30
2023-05-25T22:40:17.815Z,20.11
2023-05-25T22:42:50.097Z,19.95
2023-05-25T22:45:18.278Z,19.80
2023-05-25T22:47:47.453Z,19.67
2023-05-25T22:50:14.545Z,19.53
2023-05-25T22:52:41.737Z,19.44
2023-05-25T22:55:12.732Z,19.36
2023-05-25T22:57:40.487Z,19.25
2023-05-25T23:00:08.565Z,19.12
2023-05-25T23:02:36.856Z,18.98
2023-05-25T23:05:05.428Z,18.87
2023-05-25T23:07:32.867Z,18.78
2023-05-25T23:10:00.359Z,18.70
2023-05-25T23:12:27.648Z,18.65
2023-05-25T23:14:56.637Z,18.60
2023-05-25T23:17:23.706Z,18.59
2023-05-25T23:19:50.911Z,18.50
2023-05-25T23:22:17.930Z,18.41
2023-05-25T23:24:45.125Z,18.33
2023-05-25T23:27:12.523Z,18.23
2023-05-25T23:29:40.084Z,18.80
2023-05-25T23:32:07.244Z,19.45
2023-05-25T23:34:35.868Z,19.61
2023-05-25T23:37:06.294Z,19.48
2023-05-25T23:39:34.041Z,19.22
2023-05-25T23:42:02.231Z,19.00
2023-05-25T23:44:29.485Z,18.79
2023-05-25T23:46:56.908Z,18.60
2023-05-25T23:49:24.089Z,18.42
2023-05-25T23:51:51.323Z,18.28
2023-05-25T23:54:18.507Z,18.17
2023-05-25T23:56:45.699Z,18.03
2023-05-25T23:59:15.227Z,18.53
